createdAt,value
2017-03-03T00:00:25.934Z,5.54
2017-03-03T00:01:37.440Z,5.52
2017-03-03T00:02:48.991Z,5.46
2017-03-03T00:04:00.712Z,5.44
2017-03-03T00:05:12.202Z,5.42
2017-03-03T00:06:23.710Z,5.31
2017-03-03T00:07:35.211Z,5.49
2017-03-03T00:08:46.709Z,5.49
2017-03-03T00:09:58.616Z,5.52
2017-03-03T00:11:10.123Z,5.45
2017-03-03T00:12:21.641Z,5.46
2017-03-03T00:13:33.198Z,5.51
2017-03-03T00:14:44.679Z,5.46
2017-03-03T00:15:56.160Z,5.36
2017-03-03T00:17:07.858Z,5.37
2017-03-03T00:18:19.365Z,5.45
2017-03-03T00:19:31.105Z,5.3
2017-03-03T00:20:42.602Z,5.28
2017-03-03T00:21:54.320Z,5.27
2017-03-03T00:23:05.806Z,5.24
2017-03-03T00:24:17.365Z,5.3
2017-03-03T00:25:29.063Z,5.26
2017-03-03T00:26:40.542Z,5.28
2017-03-03T00:27:52.065Z,5.24
2017-03-03T00:29:03.552Z,5.27
2017-03-03T00:30:15.045Z,5.27
2017-03-03T00:31:26.528Z,5.23
2017-03-03T00:32:38.020Z,5.24
2017-03-03T00:33:49.519Z,5.18
2017-03-03T00:35:01.019Z,5.21
2017-03-03T00:36:12.779Z,5.21
2017-03-03T00:37:24.289Z,5.13
2017-03-03T00:38:35.977Z,5.2
2017-03-03T00:39:47.479Z,5.12
2017-03-03T00:40:59.059Z,5.2
2017-03-03T00:42:10.993Z,5.13
2017-03-03T00:43:22.484Z,5.08
2017-03-03T00:44:33.996Z,5.09
2017-03-03T00:45:45.512Z,5.06
2017-03-03T00:46:57.000Z,5.12
2017-03-03T00:48:08.484Z,5.1
2017-03-03T00:49:19.966Z,5.06
2017-03-03T00:50:31.477Z,5.13
2017-03-03T00:51:43.023Z,5.13
2017-03-03T00:52:54.522Z,5.02
2017-03-03T00:54:06.247Z,5.06
2017-03-03T00:55:17.727Z,5.02
2017-03-03T00:56:29.236Z,5.02
2017-03-03T00:57:40.787Z,4.98
2017-03-03T00:58:52.291Z,5.02
2017-03-03T01:00:03.970Z,5.05
2017-03-03T01:01:15.661Z,4.98
2017-03-03T01:02:27.225Z,4.92
2017-03-03T01:03:38.730Z,4.91
2017-03-03T01:04:50.226Z,4.92
2017-03-03T01:06:01.738Z,4.9
2017-03-03T01:07:13.231Z,4.94
2017-03-03T01:08:24.713Z,4.91
2017-03-03T01:09:36.235Z,4.79
2017-03-03T01:10:47.770Z,4.83
2017-03-03T01:11:59.238Z,4.76
2017-03-03T01:13:10.782Z,4.78
2017-03-03T01:14:22.289Z,4.78
2017-03-03T01:15:33.787Z,4.78
2017-03-03T01:16:45.287Z,4.78
2017-03-03T01:17:56.787Z,4.83
2017-03-03T01:19:08.268Z,4.75
2017-03-03T01:20:19.974Z,4.69
2017-03-03T01:21:31.484Z,4.66
2017-03-03T01:22:42.976Z,4.68
2017-03-03T01:23:54.465Z,4.69
2017-03-03T01:25:06.225Z,4.65
2017-03-03T01:26:17.750Z,4.58
2017-03-03T01:27:29.247Z,4.53
2017-03-03T01:28:40.749Z,4.57
2017-03-03T01:29:52.265Z,4.53
2017-03-03T01:31:03.959Z,4.58
2017-03-03T01:32:15.680Z,4.53
2017-03-03T01:33:27.342Z,4.54
2017-03-03T01:34:39.208Z,4.57
2017-03-03T01:35:50.735Z,4.57
2017-03-03T01:37:02.217Z,4.5
2017-03-03T01:38:13.693Z,4.48
2017-03-03T01:39:25.202Z,4.5
2017-03-03T01:40:37.061Z,4.48
2017-03-03T01:41:48.553Z,4.5
2017-03-03T01:43:00.066Z,4.51
2017-03-03T01:44:11.551Z,4.38
2017-03-03T01:45:23.379Z,4.44
2017-03-03T01:46:34.897Z,4.39
2017-03-03T01:47:46.594Z,4.36
2017-03-03T01:48:58.091Z,4.4
2017-03-03T01:50:09.795Z,4.39
2017-03-03T01:51:21.536Z,4.4
2017-03-03T01:52:33.248Z,4.42
2017-03-03T01:53:45.148Z,4.39
2017-03-03T01:54:56.666Z,4.36
2017-03-03T01:56:08.173Z,4.36
2017-03-03T01:57:19.730Z,4.28
2017-03-03T01:58:31.224Z,4.33
2017-03-03T01:59:42.744Z,4.36
2017-03-03T02:00:54.237Z,4.38
2017-03-03T02:02:05.744Z,4.33
2017-03-03T02:03:17.300Z,4.24
2017-03-03T02:04:28.780Z,4.18
2017-03-03T02:05:40.322Z,4.2
2017-03-03T02:06:52.021Z,4.2
2017-03-03T02:08:03.738Z,4.18
2017-03-03T02:09:15.290Z,4.18
2017-03-03T02:10:27.019Z,4.17
2017-03-03T02:11:38.507Z,4.2
2017-03-03T02:12:49.997Z,4.21
2017-03-03T02:14:01.498Z,4.15
2017-03-03T02:15:13.010Z,4.18
2017-03-03T02:16:24.512Z,4.28
2017-03-03T02:17:36.004Z,4.18
2017-03-03T02:18:47.735Z,4.14
2017-03-03T02:19:59.256Z,4.18
2017-03-03T02:21:10.795Z,4.11
2017-03-03T02:22:22.319Z,4.14
2017-03-03T02:23:33.827Z,4.22
2017-03-03T02:24:45.344Z,4.14
2017-03-03T02:25:56.848Z,4.11
2017-03-03T02:27:08.385Z,4.04
2017-03-03T02:28:19.881Z,4.12
2017-03-03T02:29:31.373Z,4.08
2017-03-03T02:30:42.880Z,4.15
2017-03-03T02:31:54.411Z,4.12
2017-03-03T02:33:05.953Z,4.11
2017-03-03T02:34:17.448Z,4.18
2017-03-03T02:35:28.945Z,4.17
2017-03-03T02:36:40.458Z,4.08
2017-03-03T02:37:51.972Z,4.14
2017-03-03T02:39:03.705Z,4.07
2017-03-03T02:40:15.200Z,4.12
2017-03-03T02:41:26.711Z,4.08
2017-03-03T02:42:38.407Z,4.14
2017-03-03T02:43:49.915Z,4.1
2017-03-03T02:45:01.461Z,4.08
2017-03-03T02:46:12.956Z,4.1
2017-03-03T02:47:24.666Z,4.1
2017-03-03T02:48:36.191Z,4.15
2017-03-03T02:49:47.678Z,4.11
2017-03-03T02:50:59.232Z,4.12
2017-03-03T02:52:10.721Z,4.1
2017-03-03T02:53:22.217Z,4.03
2017-03-03T02:54:33.707Z,3.99
2017-03-03T02:55:45.400Z,3.94
2017-03-03T02:56:56.977Z,4.07
2017-03-03T02:58:08.481Z,3.97
2017-03-03T02:59:20.170Z,4.02
2017-03-03T03:00:31.663Z,3.94
2017-03-03T03:01:43.145Z,3.96
2017-03-03T03:02:54.701Z,3.92
2017-03-03T03:04:06.182Z,3.92
2017-03-03T03:05:17.710Z,3.89
2017-03-03T03:06:29.404Z,3.85
2017-03-03T03:07:40.891Z,3.92
2017-03-03T03:08:52.427Z,3.84
2017-03-03T03:10:03.950Z,3.86
2017-03-03T03:11:15.444Z,3.89
2017-03-03T03:12:26.937Z,3.85
2017-03-03T03:13:38.446Z,3.89
2017-03-03T03:14:49.992Z,3.86
2017-03-03T03:16:01.495Z,3.79
2017-03-03T03:17:13.005Z,3.89
2017-03-03T03:18:24.530Z,3.86
2017-03-03T03:19:36.012Z,3.89
2017-03-03T03:20:47.767Z,3.85
2017-03-03T03:21:59.248Z,3.76
2017-03-03T03:23:10.751Z,3.72
2017-03-03T03:24:22.484Z,3.72
2017-03-03T03:25:33.980Z,3.74
2017-03-03T03:26:45.745Z,3.67
2017-03-03T03:27:57.447Z,3.71
2017-03-03T03:29:08.932Z,3.6
2017-03-03T03:30:20.434Z,3.58
2017-03-03T03:31:32.127Z,3.64
2017-03-03T03:32:43.879Z,3.56
2017-03-03T03:33:55.387Z,3.51
2017-03-03T03:35:06.902Z,3.56
2017-03-03T03:36:18.410Z,3.51
2017-03-03T03:37:29.901Z,3.56
2017-03-03T03:38:41.458Z,3.53
2017-03-03T03:39:53.164Z,3.61
2017-03-03T03:41:04.866Z,3.56
2017-03-03T03:42:16.366Z,3.6
2017-03-03T03:43:27.861Z,3.56
2017-03-03T03:44:39.409Z,3.56
2017-03-03T03:45:50.887Z,3.6
2017-03-03T03:47:02.586Z,3.58
2017-03-03T03:48:14.094Z,3.53
2017-03-03T03:49:25.612Z,3.64
2017-03-03T03:50:37.139Z,3.58
2017-03-03T03:51:48.839Z,3.56
2017-03-03T03:53:00.343Z,3.54
2017-03-03T03:54:11.851Z,3.57
2017-03-03T03:55:23.575Z,3.56
2017-03-03T03:56:35.130Z,3.51
2017-03-03T03:57:46.643Z,3.54
2017-03-03T03:58:58.373Z,3.54
2017-03-03T04:00:09.868Z,3.56
2017-03-03T04:01:21.367Z,3.56
2017-03-03T04:02:32.911Z,3.49
2017-03-03T04:03:44.403Z,3.56
2017-03-03T04:04:55.892Z,3.49
2017-03-03T04:06:07.423Z,3.51
2017-03-03T04:07:18.928Z,3.54
2017-03-03T04:08:30.681Z,3.56
2017-03-03T04:09:42.167Z,3.46
2017-03-03T04:10:53.665Z,3.45
2017-03-03T04:12:05.356Z,3.42
2017-03-03T04:13:17.059Z,3.46
2017-03-03T04:14:29.013Z,3.46
2017-03-03T04:15:40.488Z,3.46
2017-03-03T04:16:51.976Z,3.46
2017-03-03T04:18:03.463Z,3.42
2017-03-03T04:19:15.185Z,3.34
2017-03-03T04:20:26.726Z,3.34
2017-03-03T04:21:38.241Z,3.39
2017-03-03T04:22:49.707Z,3.42
2017-03-03T04:24:01.237Z,3.42
2017-03-03T04:25:12.728Z,3.4
2017-03-03T04:26:24.468Z,3.42
2017-03-03T04:27:35.995Z,3.4
2017-03-03T04:28:47.485Z,3.32
2017-03-03T04:29:58.993Z,3.32
2017-03-03T04:31:10.710Z,3.35
2017-03-03T04:32:22.268Z,3.35
2017-03-03T04:33:33.774Z,3.35
2017-03-03T04:34:45.286Z,3.29
2017-03-03T04:35:56.996Z,3.34
2017-03-03T04:37:08.493Z,3.21
2017-03-03T04:38:20.043Z,3.21
2017-03-03T04:39:31.537Z,3.23
2017-03-03T04:40:43.033Z,3.26
2017-03-03T04:41:54.741Z,3.23
2017-03-03T04:43:06.232Z,3.26
2017-03-03T04:44:17.777Z,3.27
2017-03-03T04:45:29.274Z,3.26
2017-03-03T04:46:40.795Z,3.13
2017-03-03T04:47:52.329Z,3.16
2017-03-03T04:49:03.808Z,3.19
2017-03-03T04:50:15.348Z,3.09
2017-03-03T04:51:26.852Z,3.14
2017-03-03T04:52:38.339Z,3.13
2017-03-03T04:53:49.839Z,3.16
2017-03-03T04:55:01.346Z,3.09
2017-03-03T04:56:13.104Z,3.13
2017-03-03T04:57:24.795Z,3.14
2017-03-03T04:58:36.501Z,3.13
2017-03-03T04:59:48.186Z,2.99
2017-03-03T05:00:59.682Z,3.06
2017-03-03T05:02:11.215Z,3.08
2017-03-03T05:03:22.703Z,3.13
2017-03-03T05:04:34.199Z,3.06
2017-03-03T05:05:45.680Z,2.98
2017-03-03T05:06:57.373Z,3.05
2017-03-03T05:08:08.908Z,3.02
2017-03-03T05:09:20.649Z,3.01
2017-03-03T05:10:32.136Z,2.93
2017-03-03T05:11:43.620Z,3.03
2017-03-03T05:12:55.172Z,2.96
2017-03-03T05:14:06.726Z,2.99
2017-03-03T05:15:18.232Z,2.98
2017-03-03T05:16:29.732Z,2.96
2017-03-03T05:17:41.211Z,2.99
2017-03-03T05:18:52.735Z,2.98
2017-03-03T05:20:04.303Z,2.98
2017-03-03T05:21:15.795Z,3.03
2017-03-03T05:22:27.281Z,2.95
2017-03-03T05:23:38.775Z,2.96
2017-03-03T05:24:50.306Z,3.01
2017-03-03T05:26:02.075Z,2.99
2017-03-03T05:27:13.580Z,2.91
2017-03-03T05:28:25.278Z,2.91
2017-03-03T05:29:36.784Z,2.88
2017-03-03T05:30:48.274Z,2.9
2017-03-03T05:32:00.044Z,2.87
2017-03-03T05:33:11.529Z,2.88
2017-03-03T05:34:23.021Z,2.93
2017-03-03T05:35:34.522Z,2.93
2017-03-03T05:36:46.037Z,2.98
2017-03-03T05:37:57.799Z,2.95
2017-03-03T05:39:09.280Z,2.91
2017-03-03T05:40:20.787Z,2.91
2017-03-03T05:41:32.484Z,2.84
2017-03-03T05:42:44.000Z,2.88
2017-03-03T05:43:55.569Z,2.91
2017-03-03T05:45:07.074Z,2.87
2017-03-03T05:46:18.564Z,2.88
2017-03-03T05:47:30.277Z,2.88
2017-03-03T05:48:41.802Z,2.9
2017-03-03T05:49:53.357Z,2.87
2017-03-03T05:51:04.834Z,2.81
2017-03-03T05:52:16.333Z,2.88
2017-03-03T05:53:27.821Z,2.84
2017-03-03T05:54:39.324Z,2.8
2017-03-03T05:55:50.866Z,2.77
2017-03-03T05:57:02.351Z,2.8
2017-03-03T05:58:13.875Z,2.8
2017-03-03T05:59:25.354Z,2.77
2017-03-03T06:00:36.850Z,2.72
2017-03-03T06:01:48.413Z,2.8
2017-03-03T06:03:00.318Z,2.72
2017-03-03T06:04:11.804Z,2.77
2017-03-03T06:05:23.293Z,2.66
2017-03-03T06:06:34.790Z,2.6
2017-03-03T06:07:46.341Z,2.67
2017-03-03T06:08:58.012Z,2.69
2017-03-03T06:10:09.490Z,2.65
2017-03-03T06:11:20.997Z,2.7
2017-03-03T06:12:32.547Z,2.65
2017-03-03T06:13:44.106Z,2.69
2017-03-03T06:14:55.638Z,2.58
2017-03-03T06:16:07.142Z,2.59
2017-03-03T06:17:18.655Z,2.63
2017-03-03T06:18:30.151Z,2.59
2017-03-03T06:19:41.711Z,2.62
2017-03-03T06:20:53.212Z,2.59
2017-03-03T06:22:04.714Z,2.59
2017-03-03T06:23:16.408Z,2.59
2017-03-03T06:24:27.908Z,2.59
2017-03-03T06:25:39.447Z,2.6
2017-03-03T06:26:50.958Z,2.65
2017-03-03T06:28:02.469Z,2.58
2017-03-03T06:29:13.976Z,2.58
2017-03-03T06:30:25.474Z,2.59
2017-03-03T06:31:36.991Z,2.62
2017-03-03T06:32:48.510Z,2.62
2017-03-03T06:33:59.978Z,2.54
2017-03-03T06:35:11.480Z,2.59
2017-03-03T06:36:23.144Z,2.47
2017-03-03T06:37:34.693Z,2.54
2017-03-03T06:38:46.188Z,2.52
2017-03-03T06:39:57.703Z,2.44
2017-03-03T06:41:09.197Z,2.58
2017-03-03T06:42:20.689Z,2.52
2017-03-03T06:43:32.443Z,2.55
2017-03-03T06:44:44.135Z,2.59
2017-03-03T06:45:55.642Z,2.59
2017-03-03T06:47:07.146Z,2.62
2017-03-03T06:48:18.849Z,2.66
2017-03-03T06:49:30.403Z,2.77
2017-03-03T06:50:41.925Z,2.8
2017-03-03T06:51:53.441Z,2.81
2017-03-03T06:53:04.954Z,2.8
2017-03-03T06:54:16.484Z,2.88
2017-03-03T06:55:28.037Z,2.88
2017-03-03T06:56:39.542Z,3.03
2017-03-03T06:57:51.034Z,3.11
2017-03-03T06:59:02.746Z,3.35
2017-03-03T07:00:14.459Z,3.43
2017-03-03T07:01:26.216Z,3.56
2017-03-03T07:02:37.731Z,3.71
2017-03-03T07:03:49.220Z,3.74
2017-03-03T07:05:00.678Z,3.9
2017-03-03T07:06:12.169Z,3.85
2017-03-03T07:07:23.686Z,3.9
2017-03-03T07:08:35.183Z,4.15
2017-03-03T07:09:46.663Z,4.33
2017-03-03T07:10:58.173Z,4.53
2017-03-03T07:12:09.876Z,4.79
2017-03-03T07:13:21.432Z,4.98
2017-03-03T07:14:32.955Z,5.44
2017-03-03T07:15:44.441Z,5.69
2017-03-03T07:16:56.154Z,6.17
2017-03-03T07:18:07.653Z,6.67
2017-03-03T07:19:19.203Z,7.08
2017-03-03T07:20:30.738Z,7.23
2017-03-03T07:21:42.424Z,7.19
2017-03-03T07:22:53.914Z,7
2017-03-03T07:24:05.441Z,6.94
2017-03-03T07:25:16.937Z,6.98
2017-03-03T07:26:28.637Z,7.04
2017-03-03T07:27:40.343Z,7.13
2017-03-03T07:28:51.861Z,7
2017-03-03T07:30:03.413Z,6.83
2017-03-03T07:31:14.916Z,6.61
2017-03-03T07:32:26.411Z,6.57
2017-03-03T07:33:37.927Z,6.54
2017-03-03T07:34:49.433Z,6.58
2017-03-03T07:36:01.178Z,6.57
2017-03-03T07:37:12.699Z,6.42
2017-03-03T07:38:24.426Z,6.34
2017-03-03T07:39:36.119Z,6.42
2017-03-03T07:40:47.621Z,6.44
2017-03-03T07:41:59.164Z,6.52
2017-03-03T07:43:10.659Z,6.65
2017-03-03T07:44:22.166Z,6.58
2017-03-03T07:45:33.682Z,6.61
2017-03-03T07:46:45.184Z,6.54
2017-03-03T07:47:56.925Z,6.52
2017-03-03T07:49:08.628Z,6.64
2017-03-03T07:50:20.116Z,6.58
2017-03-03T07:51:31.619Z,6.61
2017-03-03T07:52:43.130Z,6.72
2017-03-03T07:53:54.882Z,6.75
2017-03-03T07:55:06.347Z,6.76
2017-03-03T07:56:17.844Z,7
2017-03-03T07:57:29.357Z,7.37
2017-03-03T07:58:41.044Z,7.56
2017-03-03T07:59:52.632Z,7.92
2017-03-03T08:01:04.122Z,8.31
2017-03-03T08:02:15.631Z,8.57
2017-03-03T08:03:27.157Z,8.69
2017-03-03T08:04:38.657Z,8.57
2017-03-03T08:05:50.194Z,8.53
2017-03-03T08:07:01.713Z,8.44
2017-03-03T08:08:13.424Z,8.34
2017-03-03T08:09:24.910Z,8.29
2017-03-03T08:10:36.423Z,8.4
2017-03-03T08:11:47.996Z,8.43
2017-03-03T08:12:59.497Z,8.54
2017-03-03T08:14:11.190Z,8.79
2017-03-03T08:15:22.693Z,9.19
2017-03-03T08:16:34.224Z,9.12
2017-03-03T08:17:45.767Z,9.29
2017-03-03T08:18:57.316Z,9.19
2017-03-03T08:20:08.816Z,9.14
2017-03-03T08:21:20.538Z,9.17
2017-03-03T08:22:32.056Z,9.11
2017-03-03T08:23:43.623Z,9.27
2017-03-03T08:24:55.134Z,9.52
2017-03-03T08:26:06.640Z,9.85
2017-03-03T08:27:18.149Z,10.05
2017-03-03T08:28:29.869Z,10.17
2017-03-03T08:29:41.426Z,10.44
2017-03-03T08:30:52.938Z,10.8
2017-03-03T08:32:04.429Z,11.03
2017-03-03T08:33:16.162Z,11.06
2017-03-03T08:34:27.856Z,11.45
2017-03-03T08:35:39.425Z,11.59
2017-03-03T08:36:50.951Z,11.86
2017-03-03T08:38:02.671Z,11.97
2017-03-03T08:39:14.199Z,12.07
2017-03-03T08:40:25.740Z,12.22
2017-03-03T08:41:37.307Z,12.53
2017-03-03T08:42:49.033Z,12.59
2017-03-03T08:44:00.567Z,12.7
2017-03-03T08:45:12.096Z,12.81
2017-03-03T08:46:23.616Z,13.06
2017-03-03T08:47:35.200Z,13.19
2017-03-03T08:48:46.705Z,12.95
2017-03-03T08:49:58.230Z,12.92
2017-03-03T08:51:09.764Z,12.91
2017-03-03T08:52:21.271Z,12.86
2017-03-03T08:53:32.819Z,12.78
2017-03-03T08:54:44.335Z,12.84
2017-03-03T08:55:55.861Z,12.53
2017-03-03T08:57:07.590Z,12.41
2017-03-03T08:58:19.125Z,12.11
2017-03-03T08:59:30.696Z,11.91
2017-03-03T09:00:42.217Z,11.95
2017-03-03T09:01:53.744Z,12.13
2017-03-03T09:03:05.307Z,12.29
2017-03-03T09:04:17.221Z,12.41
2017-03-03T09:05:28.796Z,12.37
2017-03-03T09:06:40.316Z,12.44
2017-03-03T09:07:51.832Z,12.25
2017-03-03T09:09:03.330Z,12.1
2017-03-03T09:10:14.849Z,12.23
2017-03-03T09:11:26.408Z,12.25
2017-03-03T09:12:37.930Z,12.37
2017-03-03T09:13:49.457Z,12.62
2017-03-03T09:15:00.977Z,12.55
2017-03-03T09:16:12.495Z,12.33
2017-03-03T09:17:24.069Z,12.13
2017-03-03T09:18:35.583Z,12.31
2017-03-03T09:19:47.091Z,12.31
2017-03-03T09:20:58.615Z,12.28
2017-03-03T09:22:10.125Z,12.29
2017-03-03T09:23:21.822Z,12.25
2017-03-03T09:24:33.336Z,12.37
2017-03-03T09:25:44.863Z,12.43
2017-03-03T09:26:56.372Z,12.47
2017-03-03T09:28:07.894Z,12.43
2017-03-03T09:29:19.453Z,12.45
2017-03-03T09:30:30.963Z,12.45
2017-03-03T09:31:42.450Z,12.65
2017-03-03T09:32:54.163Z,12.89
2017-03-03T09:34:05.688Z,12.98
2017-03-03T09:35:17.247Z,13.06
2017-03-03T09:36:28.764Z,12.95
2017-03-03T09:37:40.252Z,13.11
2017-03-03T09:38:51.739Z,13.17
2017-03-03T09:40:03.263Z,13.06
2017-03-03T09:41:14.824Z,12.89
2017-03-03T09:42:26.324Z,12.94
2017-03-03T09:43:37.838Z,13.17
2017-03-03T09:44:49.340Z,13.28
2017-03-03T09:46:00.868Z,13.2
2017-03-03T09:47:12.482Z,13.07
2017-03-03T09:48:24.002Z,12.91
2017-03-03T09:49:35.505Z,12.73
2017-03-03T09:50:47.057Z,12.41
2017-03-03T09:51:58.601Z,12.38
2017-03-03T09:53:10.355Z,12.31
2017-03-03T09:54:21.904Z,12.1
2017-03-03T09:55:33.440Z,12.11
2017-03-03T09:56:44.952Z,12.08
2017-03-03T09:57:56.452Z,12.01
2017-03-03T09:59:08.021Z,11.81
2017-03-03T10:00:19.512Z,11.73
2017-03-03T10:01:31.026Z,11.71
2017-03-03T10:02:42.573Z,11.59
2017-03-03T10:03:54.270Z,11.38
2017-03-03T10:05:05.831Z,11.12
2017-03-03T10:06:17.347Z,11.1
2017-03-03T10:07:29.286Z,11.02
2017-03-03T10:08:40.796Z,11.05
2017-03-03T10:09:52.500Z,10.91
2017-03-03T10:11:04.070Z,10.85
2017-03-03T10:12:15.592Z,10.77
2017-03-03T10:13:27.137Z,10.84
2017-03-03T10:14:38.652Z,10.75
2017-03-03T10:15:50.158Z,10.75
2017-03-03T10:17:01.930Z,10.9
2017-03-03T10:18:13.416Z,10.91
2017-03-03T10:19:24.951Z,10.88
2017-03-03T10:20:36.470Z,11.02
2017-03-03T10:21:47.983Z,10.98
2017-03-03T10:22:59.556Z,11.15
2017-03-03T10:24:11.059Z,11.38
2017-03-03T10:25:22.573Z,11.52
2017-03-03T10:26:34.087Z,11.66
2017-03-03T10:27:45.601Z,11.68
2017-03-03T10:28:57.166Z,11.81
2017-03-03T10:30:08.652Z,11.82
2017-03-03T10:31:20.187Z,11.64
2017-03-03T10:32:31.679Z,11.57
2017-03-03T10:33:43.383Z,11.6
2017-03-03T10:34:54.941Z,11.75
2017-03-03T10:36:06.484Z,11.61
2017-03-03T10:37:17.965Z,11.7
2017-03-03T10:38:29.459Z,11.79
2017-03-03T10:39:40.958Z,11.91
2017-03-03T10:40:52.520Z,12
2017-03-03T10:42:04.034Z,12.11
2017-03-03T10:43:15.548Z,12.23
2017-03-03T10:44:27.077Z,12.38
2017-03-03T10:45:38.568Z,12.53
2017-03-03T10:46:50.127Z,12.63
2017-03-03T10:48:01.644Z,12.86
2017-03-03T10:49:13.145Z,12.94
2017-03-03T10:50:24.662Z,13.11
2017-03-03T10:51:36.181Z,13.35
2017-03-03T10:52:47.730Z,13.45
2017-03-03T10:53:59.251Z,13.53
2017-03-03T10:55:10.781Z,13.6
2017-03-03T10:56:22.301Z,13.68
2017-03-03T10:57:34.056Z,13.73
2017-03-03T10:58:45.621Z,13.84
2017-03-03T10:59:57.168Z,13.81
2017-03-03T11:01:08.692Z,13.69
2017-03-03T11:02:20.204Z,13.62
2017-03-03T11:03:31.745Z,13.63
2017-03-03T11:04:43.248Z,13.48
2017-03-03T11:05:54.777Z,13.57
2017-03-03T11:07:06.322Z,13.78
2017-03-03T11:08:17.820Z,13.7
2017-03-03T11:09:29.361Z,13.78
2017-03-03T11:10:41.074Z,13.81
2017-03-03T11:11:52.579Z,13.78
2017-03-03T11:13:04.300Z,13.86
2017-03-03T11:14:15.811Z,14.03
2017-03-03T11:15:27.645Z,14.02
2017-03-03T11:16:39.145Z,13.99
2017-03-03T11:17:50.677Z,13.93
2017-03-03T11:19:02.400Z,14.01
2017-03-03T11:20:13.907Z,14.08
2017-03-03T11:21:25.486Z,14.06
2017-03-03T11:22:37.001Z,14.08
2017-03-03T11:23:48.513Z,14.06
2017-03-03T11:25:00.031Z,13.9
2017-03-03T11:26:11.557Z,13.81
2017-03-03T11:27:23.107Z,13.88
2017-03-03T11:28:34.616Z,13.93
2017-03-03T11:29:46.140Z,13.73
2017-03-03T11:30:57.676Z,13.4
2017-03-03T11:32:09.185Z,12.91
2017-03-03T11:33:20.788Z,12.81
2017-03-03T11:34:32.336Z,12.71
2017-03-03T11:35:43.861Z,12.7
2017-03-03T11:36:55.352Z,12.78
2017-03-03T11:38:06.867Z,12.81
2017-03-03T11:39:18.447Z,12.66
2017-03-03T11:40:29.955Z,12.59
2017-03-03T11:41:41.495Z,12.44
2017-03-03T11:42:52.995Z,12.31
2017-03-03T11:44:04.713Z,12.25
2017-03-03T11:45:16.522Z,12.11
2017-03-03T11:46:28.017Z,12.04
2017-03-03T11:47:39.733Z,11.89
2017-03-03T11:48:51.234Z,11.97
2017-03-03T11:50:02.944Z,11.84
2017-03-03T11:51:14.487Z,11.91
2017-03-03T11:52:26.031Z,11.86
2017-03-03T11:53:37.519Z,11.78
2017-03-03T11:54:49.018Z,11.61
2017-03-03T11:56:00.543Z,11.67
2017-03-03T11:57:12.099Z,11.76
2017-03-03T11:58:23.788Z,11.79
2017-03-03T11:59:35.528Z,11.86
2017-03-03T12:00:47.056Z,11.95
2017-03-03T12:01:58.767Z,11.98
2017-03-03T12:03:10.574Z,11.94
2017-03-03T12:04:22.067Z,12.03
2017-03-03T12:05:33.584Z,12.11
2017-03-03T12:06:45.122Z,12.08
2017-03-03T12:07:56.622Z,12.15
2017-03-03T12:09:08.199Z,12.07
2017-03-03T12:10:19.738Z,12.07
2017-03-03T12:11:31.244Z,12.13
2017-03-03T12:12:42.753Z,12.22
2017-03-03T12:13:54.270Z,12.33
2017-03-03T12:15:06.078Z,12.44
2017-03-03T12:16:17.760Z,12.44
2017-03-03T12:17:29.274Z,12.58
2017-03-03T12:18:40.777Z,12.63
2017-03-03T12:19:52.289Z,12.78
2017-03-03T12:21:03.862Z,13.02
2017-03-03T12:22:15.776Z,13.36
2017-03-03T12:23:27.265Z,13.44
2017-03-03T12:24:38.782Z,13.69
2017-03-03T12:25:50.292Z,13.81
2017-03-03T12:27:01.847Z,13.86
2017-03-03T12:28:13.368Z,13.84
2017-03-03T12:29:24.879Z,13.79
2017-03-03T12:30:36.385Z,13.72
2017-03-03T12:31:47.890Z,13.65
2017-03-03T12:32:59.715Z,13.6
2017-03-03T12:34:11.248Z,13.63
2017-03-03T12:35:22.747Z,13.53
2017-03-03T12:36:34.234Z,13.54
2017-03-03T12:37:45.734Z,13.54
2017-03-03T12:38:57.310Z,13.54
2017-03-03T12:40:08.803Z,13.44
2017-03-03T12:41:20.506Z,13.44
2017-03-03T12:42:32.022Z,13.48
2017-03-03T12:43:43.529Z,13.39
2017-03-03T12:44:55.079Z,13.44
2017-03-03T12:46:06.598Z,13.27
2017-03-03T12:47:18.308Z,13.24
2017-03-03T12:48:29.810Z,13.07
2017-03-03T12:49:41.540Z,13.06
2017-03-03T12:50:53.116Z,12.92
2017-03-03T12:52:04.639Z,12.94
2017-03-03T12:53:16.357Z,12.83
2017-03-03T12:54:27.888Z,12.91
2017-03-03T12:55:39.599Z,12.91
2017-03-03T12:56:51.145Z,12.84
2017-03-03T12:58:02.677Z,12.74
2017-03-03T12:59:14.236Z,12.61
2017-03-03T13:00:25.976Z,12.59
2017-03-03T13:01:37.480Z,12.45
2017-03-03T13:02:49.070Z,12.43
2017-03-03T13:04:00.589Z,12.37
2017-03-03T13:05:12.119Z,12.22
2017-03-03T13:06:23.838Z,12.22
2017-03-03T13:07:35.357Z,12.2
2017-03-03T13:08:47.109Z,12.07
2017-03-03T13:09:58.614Z,12.08
2017-03-03T13:11:10.117Z,12.15
2017-03-03T13:12:21.662Z,12.07
2017-03-03T13:13:33.181Z,12.13
2017-03-03T13:14:44.756Z,12.05
2017-03-03T13:15:56.250Z,12.13
2017-03-03T13:17:07.777Z,12.1
2017-03-03T13:18:19.293Z,12.08
2017-03-03T13:19:30.825Z,12.08
2017-03-03T13:20:42.394Z,12.15
2017-03-03T13:21:53.907Z,12.15
2017-03-03T13:23:05.408Z,12.1
2017-03-03T13:24:16.927Z,12.13
2017-03-03T13:25:28.624Z,12.25
2017-03-03T13:26:40.214Z,12.2
2017-03-03T13:27:51.730Z,12.25
2017-03-03T13:29:03.458Z,12.29
2017-03-03T13:30:14.974Z,12.36
2017-03-03T13:31:26.502Z,12.31
2017-03-03T13:32:38.060Z,12.29
2017-03-03T13:33:49.564Z,12.26
2017-03-03T13:35:01.090Z,12.18
2017-03-03T13:36:12.814Z,12.22
2017-03-03T13:37:24.308Z,12.11
2017-03-03T13:38:35.859Z,12.07
2017-03-03T13:39:47.544Z,12.1
2017-03-03T13:40:59.064Z,12.05
2017-03-03T13:42:10.781Z,12.13
2017-03-03T13:43:22.297Z,12.11
2017-03-03T13:44:33.853Z,12.04
2017-03-03T13:45:45.372Z,12.11
2017-03-03T13:46:56.905Z,12.1
2017-03-03T13:48:08.417Z,12.1
2017-03-03T13:49:19.947Z,12.15
2017-03-03T13:50:31.502Z,12.15
2017-03-03T13:51:42.991Z,12.1
2017-03-03T13:52:54.517Z,12.1
2017-03-03T13:54:06.042Z,12.07
2017-03-03T13:55:17.554Z,11.88
2017-03-03T13:56:29.309Z,12
2017-03-03T13:57:40.814Z,11.97
2017-03-03T13:58:52.327Z,11.86
2017-03-03T14:00:03.832Z,11.94
2017-03-03T14:01:15.752Z,11.85
2017-03-03T14:02:27.541Z,11.88
2017-03-03T14:03:39.040Z,11.84
2017-03-03T14:04:50.947Z,11.84
2017-03-03T14:06:02.624Z,11.82
2017-03-03T14:07:14.105Z,11.88
2017-03-03T14:08:25.876Z,11.81
2017-03-03T14:09:37.373Z,11.82
2017-03-03T14:10:48.894Z,11.86
2017-03-03T14:12:00.415Z,11.88
2017-03-03T14:13:11.919Z,12
2017-03-03T14:14:23.510Z,11.91
2017-03-03T14:15:35.021Z,11.86
2017-03-03T14:16:46.560Z,11.89
2017-03-03T14:17:58.087Z,11.84
2017-03-03T14:19:09.794Z,11.88
2017-03-03T14:20:21.544Z,11.75
2017-03-03T14:21:33.043Z,11.76
2017-03-03T14:22:44.730Z,11.68
2017-03-03T14:23:56.463Z,11.7
2017-03-03T14:25:07.982Z,11.67
2017-03-03T14:26:19.548Z,11.7
2017-03-03T14:27:31.061Z,11.67
2017-03-03T14:28:42.561Z,11.61
2017-03-03T14:29:54.089Z,11.7
2017-03-03T14:31:05.583Z,11.7
2017-03-03T14:32:17.145Z,11.67
2017-03-03T14:33:28.688Z,11.64
2017-03-03T14:34:40.198Z,11.7
2017-03-03T14:35:51.697Z,11.61
2017-03-03T14:37:03.228Z,11.67
2017-03-03T14:38:14.819Z,11.7
2017-03-03T14:39:26.320Z,11.61
2017-03-03T14:40:37.846Z,11.66
2017-03-03T14:41:49.366Z,11.59
2017-03-03T14:43:00.876Z,11.59
2017-03-03T14:44:12.818Z,11.64
2017-03-03T14:45:24.355Z,11.63
2017-03-03T14:46:35.846Z,11.53
2017-03-03T14:47:47.369Z,11.57
2017-03-03T14:48:59.075Z,11.6
2017-03-03T14:50:10.605Z,11.61
2017-03-03T14:51:22.130Z,11.6
2017-03-03T14:52:33.846Z,11.6
2017-03-03T14:53:45.387Z,11.57
2017-03-03T14:54:56.908Z,11.63
2017-03-03T14:56:08.450Z,11.66
2017-03-03T14:57:19.952Z,11.68
2017-03-03T14:58:31.461Z,11.61
2017-03-03T14:59:42.974Z,11.68
2017-03-03T15:00:54.478Z,11.7
2017-03-03T15:02:06.297Z,11.63
2017-03-03T15:03:17.801Z,11.6
2017-03-03T15:04:29.300Z,11.64
2017-03-03T15:05:40.827Z,11.6
2017-03-03T15:06:52.335Z,11.6
2017-03-03T15:08:03.893Z,11.51
2017-03-03T15:09:15.390Z,11.46
2017-03-03T15:10:26.887Z,11.46
2017-03-03T15:11:38.440Z,11.41
2017-03-03T15:12:49.945Z,11.33
2017-03-03T15:14:01.911Z,11.34
2017-03-03T15:15:13.395Z,11.38
2017-03-03T15:16:24.902Z,11.41
2017-03-03T15:17:36.397Z,11.28
2017-03-03T15:18:47.891Z,11.26
2017-03-03T15:19:59.441Z,11.33
2017-03-03T15:21:10.949Z,11.27
2017-03-03T15:22:22.467Z,11.23
2017-03-03T15:23:33.964Z,11.26
2017-03-03T15:24:45.471Z,11.15
2017-03-03T15:25:57.026Z,11.16
2017-03-03T15:27:08.537Z,11.18
2017-03-03T15:28:20.256Z,11.16
2017-03-03T15:29:31.748Z,11.13
2017-03-03T15:30:43.467Z,11.21
2017-03-03T15:31:55.286Z,11.08
2017-03-03T15:33:06.988Z,11.03
2017-03-03T15:34:18.479Z,11.02
2017-03-03T15:35:30.026Z,11.05
2017-03-03T15:36:41.530Z,11.08
2017-03-03T15:37:53.075Z,11.05
2017-03-03T15:39:04.568Z,11.05
2017-03-03T15:40:16.291Z,11
2017-03-03T15:41:27.787Z,11.06